首页
METAR-TAF:

METAR-TAF

机场 :

Moosonee, 安大略省, 加拿大

纬度: 51-16N, 经度: 080-39W, 海拔: 10米

当前天气观测

该预报发布于56分钟前的11:00 UTC
风速2节,风向西
温度 8°C
湿度 93%
气压 1017 hPa
能見度: 14.5公里
天空无云

METAR: CYMO 251100Z AUTO 27002KT 9SM CLR 08/07 A3004 RMK SLP175

时间: 07:56 (11:56 UTC)

预报

该预报发布于6小时和16分钟前的05:40 UTC
预报有效从25日的 06点(UTC)到 25日的 18点(UTC)
风速6节,风向西转西北
能見度: 10公里
天空无云

TAF: CYMO 250540Z 2506/2518 29006KT P6SM SKC RMK FCST BASED ON AUTO OBS. NXT FCST BY 251200Z

超过4000个机场的气象观测和天气预报(METAR&TAF报告)。

可查询的气象台以黄色和红色小点在地图上表示。

将鼠标移到小点上方,可查看气象台名称。

然后点击查看天气观测和预报。

如需切换地图:点击带黑十字的绿色按钮放大地图;点击带横线的绿色按钮缩小地图;或者点击绿色箭头查看邻近地区的地图。


METAR-TAF: